Time;durP1;ratioP1;P1;durP2;ratioP2;P2;SDS_P1;SDS_P2;PMS_P1;PMS_P2;Temp;Humidity;BMP_temperature;BMP_pressure;BME280_temperature;BME280_humidity;BME280_pressure;Samples;Min_cycle;Max_cycle;Signal;HPM_P1;HPM_P2
2023/05/01 00:01:26;;;;;;;;;;;;;;;4.39;99.12;101115.75;5072836;28;19999;-71
2023/05/01 00:03:51;;;;;;;;;;;;;;;4.46;99.23;101119.59;5072927;28;20377;-72
2023/05/01 00:06:17;;;;;;;;;;;;;;;4.46;99.62;101114.34;5072885;28;19919;-73
2023/05/01 00:08:42;;;;;;;;;;;;;;;4.41;99.53;101108.56;5072790;28;19917;-70
2023/05/01 00:11:11;;;;;;;;;;;;;;;4.43;98.28;101117.19;5072597;28;20257;-71
2023/05/01 00:13:36;;;;;;;;;;;;;;;4.38;99.90;101114.91;5072703;28;19951;-72
2023/05/01 00:16:06;;;;;;;;;;;;;;;4.32;99.10;101108.28;5072465;28;19951;-73
2023/05/01 00:18:31;;;;;;;;;;;;;;;4.24;99.53;101100.09;5072799;28;19916;-72
2023/05/01 00:20:57;;;;;;;;;;;;;;;4.11;100.00;101103.78;5072550;28;19973;-71
2023/05/01 00:23:22;;;;;;;;;;;;;;;3.98;100.00;101098.53;5072786;28;20382;-70
2023/05/01 00:25:48;;;;;;;;;;;;;;;3.90;100.00;101099.09;5072681;28;19913;-71
2023/05/01 00:28:13;;;;;;;;;;;;;;;3.86;100.00;101099.44;5072316;28;19920;-71
2023/05/01 00:30:39;;;;;;;;;;;;;;;3.82;100.00;101090.94;5070931;28;19918;-70
2023/05/01 00:33:05;;;;;;;;;;;;;;;3.82;100.00;101093.56;5072423;28;19912;-72
2023/05/01 00:35:30;;;;;;;;;;;;;;;3.83;100.00;101087.34;5074267;28;20401;-72
2023/05/01 00:37:55;;;;;;;;;;;;;;;3.81;100.00;101086.59;5073860;28;19912;-73
2023/05/01 00:40:21;;;;;;;;;;;;;;;3.74;100.00;101080.06;5075551;28;19970;-70
2023/05/01 00:42:47;;;;;;;;;;;;;;;3.65;100.00;101083.38;5079781;28;19912;-72
2023/05/01 00:45:13;;;;;;;;;;;;;;;3.58;100.00;101082.16;5083005;28;19923;-73
2023/05/01 00:47:38;;;;;;;;;;;;;;;3.55;100.00;101085.00;5079905;28;20019;-72
2023/05/01 00:50:04;;;;;;;;;;;;;;;3.50;100.00;101093.25;5080289;28;19944;-73
2023/05/01 00:52:30;;;;;;;;;;;;;;;3.61;100.00;101084.56;5072511;28;20275;-71
2023/05/01 00:54:56;;;;;;;;;;;;;;;3.76;100.00;101088.75;5073054;28;20371;-71
2023/05/01 00:57:21;;;;;;;;;;;;;;;3.91;100.00;101092.88;5076065;28;19916;-72
2023/05/01 00:59:47;;;;;;;;;;;;;;;4.02;100.00;101085.03;5076361;28;20007;-73
2023/05/01 01:02:13;;;;;;;;;;;;;;;4.12;100.00;101082.56;5076513;28;20379;-72
2023/05/01 01:04:39;;;;;;;;;;;;;;;4.24;100.00;101080.81;5076302;28;19919;-72
2023/05/01 01:07:11;;;;;;;;;;;;;;;4.34;100.00;101095.00;5076625;28;20386;-71
2023/05/01 01:09:39;;;;;;;;;;;;;;;4.40;100.00;101089.28;5076273;28;20443;-72
2023/05/01 01:12:20;;;;;;;;;;;;;;;4.48;100.00;101091.31;5076165;28;20360;-73
2023/05/01 01:14:58;;;;;;;;;;;;;;;4.52;100.00;101082.22;5076047;28;20015;-73
2023/05/01 01:17:30;;;;;;;;;;;;;;;4.60;100.00;101080.66;5074830;28;19999;-73
2023/05/01 01:20:31;;;;;;;;;;;;;;;4.62;100.00;101084.03;5076003;28;19912;-70
2023/05/01 01:23:00;;;;;;;;;;;;;;;4.69;100.00;101083.59;5056119;28;20015;-73
2023/05/01 01:25:36;;;;;;;;;;;;;;;4.71;100.00;101071.13;5060973;28;20003;-73
2023/05/01 01:28:20;;;;;;;;;;;;;;;4.70;100.00;101070.28;5079230;28;19916;-70
2023/05/01 01:30:57;;;;;;;;;;;;;;;4.66;100.00;101069.69;5078950;28;19947;-71
2023/05/01 01:33:47;;;;;;;;;;;;;;;4.69;100.00;101063.31;5078531;28;19913;-73
2023/05/01 01:36:15;;;;;;;;;;;;;;;4.66;100.00;101064.41;5059042;28;20454;-72
2023/05/01 01:38:45;;;;;;;;;;;;;;;4.64;100.00;101065.47;5080156;28;19919;-71
2023/05/01 01:41:18;;;;;;;;;;;;;;;4.58;100.00;101065.91;5082241;28;19912;-70
2023/05/01 01:43:46;;;;;;;;;;;;;;;4.55;100.00;101061.72;5078629;28;20015;-71
2023/05/01 01:46:11;;;;;;;;;;;;;;;4.61;100.00;101055.97;5076315;28;19924;-71
2023/05/01 01:48:41;;;;;;;;;;;;;;;4.70;100.00;101067.66;5079084;28;19916;-70
2023/05/01 01:51:12;;;;;;;;;;;;;;;4.71;100.00;101063.22;5075547;28;19939;-73
2023/05/01 01:53:39;;;;;;;;;;;;;;;4.59;100.00;101063.16;5075813;28;19919;-73
2023/05/01 01:56:06;;;;;;;;;;;;;;;4.56;100.00;101063.41;5075432;28;19948;-69
2023/05/01 01:58:32;;;;;;;;;;;;;;;4.59;100.00;101071.06;5075266;28;19924;-73
2023/05/01 02:00:58;;;;;;;;;;;;;;;4.56;100.00;101068.69;5075734;28;20379;-73
2023/05/01 02:03:24;;;;;;;;;;;;;;;4.55;100.00;101069.63;5075266;28;19919;-71
2023/05/01 02:05:50;;;;;;;;;;;;;;;4.49;100.00;101067.47;5074469;28;19913;-69
2023/05/01 02:08:16;;;;;;;;;;;;;;;4.42;100.00;101071.53;5075627;28;19913;-71
2023/05/01 02:10:43;;;;;;;;;;;;;;;4.40;100.00;101072.59;5075512;28;20314;-70
2023/05/01 02:13:09;;;;;;;;;;;;;;;4.41;100.00;101066.38;5076906;28;19920;-71
2023/05/01 02:15:39;;;;;;;;;;;;;;;4.48;100.00;101068.44;5078041;28;19912;-72
2023/05/01 02:18:05;;;;;;;;;;;;;;;4.58;100.00;101076.47;5075694;28;19912;-71
2023/05/01 02:20:32;;;;;;;;;;;;;;;4.58;100.00;101066.75;5076092;28;19923;-70
2023/05/01 02:22:58;;;;;;;;;;;;;;;4.53;100.00;101063.63;5074923;28;19916;-73
2023/05/01 02:25:24;;;;;;;;;;;;;;;4.40;100.00;101065.53;5074899;28;20368;-74
2023/05/01 02:27:54;;;;;;;;;;;;;;;4.32;100.00;101057.34;5075879;28;19917;-70
2023/05/01 02:30:20;;;;;;;;;;;;;;;4.24;100.00;101051.81;5075920;28;19957;-71
2023/05/01 02:32:46;;;;;;;;;;;;;;;4.25;100.00;101062.25;5075314;28;20322;-72
2023/05/01 02:35:12;;;;;;;;;;;;;;;4.30;100.00;101062.72;5075257;28;19916;-69
2023/05/01 02:37:41;;;;;;;;;;;;;;;4.42;100.00;101066.25;5073312;28;19912;-70
2023/05/01 02:40:12;;;;;;;;;;;;;;;4.56;100.00;101066.03;5058127;28;19916;-72
2023/05/01 02:42:38;;;;;;;;;;;;;;;4.54;100.00;101059.19;5056656;28;20014;-71
2023/05/01 02:45:06;;;;;;;;;;;;;;;4.62;100.00;101068.19;5072860;28;20459;-71
2023/05/01 02:47:34;;;;;;;;;;;;;;;4.68;100.00;101066.09;5074388;28;20295;-69
2023/05/01 02:50:00;;;;;;;;;;;;;;;4.64;100.00;101068.97;5073946;28;19912;-71
2023/05/01 02:52:26;;;;;;;;;;;;;;;4.61;100.00;101074.44;5074192;28;19964;-72
2023/05/01 02:54:51;;;;;;;;;;;;;;;4.58;100.00;101072.03;5074476;28;19982;-73
2023/05/01 02:57:17;;;;;;;;;;;;;;;4.61;100.00;101066.53;5074016;28;20241;-71
2023/05/01 02:59:43;;;;;;;;;;;;;;;4.62;100.00;101070.84;5074109;28;19919;-72
2023/05/01 03:02:08;;;;;;;;;;;;;;;4.71;100.00;101073.75;5073965;28;19920;-72
2023/05/01 03:04:33;;;;;;;;;;;;;;;4.78;100.00;101073.16;5073763;28;20011;-70
2023/05/01 03:06:59;;;;;;;;;;;;;;;4.85;100.00;101076.16;5073764;28;19919;-71
2023/05/01 03:09:24;;;;;;;;;;;;;;;4.95;100.00;101069.25;5073850;28;19964;-74
2023/05/01 03:11:49;;;;;;;;;;;;;;;5.07;100.00;101073.56;5074280;28;19912;-70
2023/05/01 03:14:15;;;;;;;;;;;;;;;5.17;100.00;101066.59;5074351;28;19913;-70
2023/05/01 03:16:41;;;;;;;;;;;;;;;5.20;100.00;101066.38;5074111;28;20296;-71
2023/05/01 03:19:06;;;;;;;;;;;;;;;5.17;100.00;101069.22;5073150;28;19918;-72
2023/05/01 03:21:32;;;;;;;;;;;;;;;5.06;100.00;101069.22;5074194;28;19939;-71
2023/05/01 03:23:57;;;;;;;;;;;;;;;4.95;100.00;101071.88;5073872;28;20367;-71
2023/05/01 03:26:23;;;;;;;;;;;;;;;4.97;100.00;101068.16;5074266;28;19912;-72
2023/05/01 03:28:48;;;;;;;;;;;;;;;4.94;100.00;101073.69;5073939;28;19920;-72
2023/05/01 03:31:13;;;;;;;;;;;;;;;4.89;100.00;101069.69;5075699;28;19919;-71
2023/05/01 03:33:39;;;;;;;;;;;;;;;4.87;100.00;101074.25;5075357;28;20019;-71
2023/05/01 03:36:05;;;;;;;;;;;;;;;4.83;100.00;101070.16;5074712;28;19913;-71
2023/05/01 03:38:31;;;;;;;;;;;;;;;4.89;100.00;101067.03;5075321;28;19913;-72
2023/05/01 03:40:57;;;;;;;;;;;;;;;4.92;100.00;101075.59;5073974;28;19957;-73
2023/05/01 03:43:22;;;;;;;;;;;;;;;4.93;100.00;101077.28;5074287;28;20006;-70
2023/05/01 03:45:48;;;;;;;;;;;;;;;4.98;100.00;101074.28;5075208;28;19916;-71
2023/05/01 03:48:13;;;;;;;;;;;;;;;4.97;100.00;101077.88;5074766;28;20318;-70
2023/05/01 03:50:39;;;;;;;;;;;;;;;5.00;100.00;101071.50;5073099;28;19966;-72
2023/05/01 03:53:04;;;;;;;;;;;;;;;5.01;100.00;101074.03;5072777;28;19947;-71
2023/05/01 03:55:29;;;;;;;;;;;;;;;5.12;100.00;101071.38;5072959;28;19920;-72
2023/05/01 03:57:55;;;;;;;;;;;;;;;5.21;100.00;101075.97;5072759;28;20283;-70
2023/05/01 04:00:20;;;;;;;;;;;;;;;5.28;100.00;101074.53;5072665;28;19912;-73
2023/05/01 04:02:46;;;;;;;;;;;;;;;5.41;100.00;101070.91;5072746;28;19920;-72
2023/05/01 04:05:12;;;;;;;;;;;;;;;5.47;100.00;101075.69;5072434;28;20434;-71
2023/05/01 04:07:37;;;;;;;;;;;;;;;5.42;100.00;101076.06;5072595;28;20225;-72
2023/05/01 04:10:03;;;;;;;;;;;;;;;5.40;100.00;101072.69;5072681;28;20344;-71
2023/05/01 04:12:29;;;;;;;;;;;;;;;5.26;100.00;101088.81;5072560;28;20364;-74
2023/05/01 04:14:54;;;;;;;;;;;;;;;5.30;100.00;101082.31;5072638;28;19912;-72
2023/05/01 04:17:19;;;;;;;;;;;;;;;5.54;100.00;101083.03;5072303;28;20395;-71
2023/05/01 04:19:46;;;;;;;;;;;;;;;5.79;98.66;101081.91;5072554;28;20383;-70
2023/05/01 04:22:12;;;;;;;;;;;;;;;6.00;97.20;101081.13;5072511;28;19923;-72
2023/05/01 04:24:37;;;;;;;;;;;;;;;6.16;97.06;101081.56;5072434;28;19913;-72
2023/05/01 04:27:03;;;;;;;;;;;;;;;6.19;95.41;101083.94;5072409;28;20450;-71
2023/05/01 04:29:28;;;;;;;;;;;;;;;6.28;95.05;101080.53;5072098;28;20326;-73
2023/05/01 04:31:54;;;;;;;;;;;;;;;6.23;94.22;101085.38;5072664;28;19912;-70
2023/05/01 04:34:19;;;;;;;;;;;;;;;6.13;95.20;101092.41;5075086;28;20011;-70
2023/05/01 04:36:45;;;;;;;;;;;;;;;6.10;95.01;101097.94;5075024;28;19959;-70
2023/05/01 04:39:10;;;;;;;;;;;;;;;6.18;93.93;101088.41;5073160;28;19930;-72
2023/05/01 04:41:36;;;;;;;;;;;;;;;6.36;93.83;101086.06;5076876;28;19913;-72
2023/05/01 04:44:01;;;;;;;;;;;;;;;6.47;93.03;101087.78;5076568;28;20240;-72
2023/05/01 04:46:27;;;;;;;;;;;;;;;6.39;91.50;101091.09;5080616;28;20057;-70
2023/05/01 04:48:52;;;;;;;;;;;;;;;6.63;92.56;101092.63;5082000;28;19921;-70
2023/05/01 04:51:18;;;;;;;;;;;;;;;7.02;89.90;101089.25;5082483;28;19913;-72
2023/05/01 04:53:44;;;;;;;;;;;;;;;7.19;89.21;101094.91;5085678;28;19912;-70
2023/05/01 04:56:09;;;;;;;;;;;;;;;7.37;87.96;101103.91;5075294;28;19918;-70
2023/05/01 04:58:34;;;;;;;;;;;;;;;7.11;87.09;101099.06;5073916;28;19921;-72
2023/05/01 05:01:00;;;;;;;;;;;;;;;6.94;87.80;101104.97;5078723;28;20368;-72
2023/05/01 05:03:26;;;;;;;;;;;;;;;6.79;89.49;101101.81;5072038;28;19912;-70
2023/05/01 05:05:51;;;;;;;;;;;;;;;6.67;88.61;101099.38;5070573;28;20275;-70
2023/05/01 05:08:16;;;;;;;;;;;;;;;6.50;89.29;101112.19;5072026;28;19920;-72
2023/05/01 05:10:42;;;;;;;;;;;;;;;6.31;88.29;101103.25;5071951;28;19968;-72
2023/05/01 05:13:08;;;;;;;;;;;;;;;6.24;88.61;101108.22;5072050;28;19912;-70
2023/05/01 05:15:34;;;;;;;;;;;;;;;6.26;89.03;101103.63;5071948;28;20442;-70
2023/05/01 05:17:59;;;;;;;;;;;;;;;6.37;89.23;101102.75;5071982;28;20023;-72
2023/05/01 05:20:25;;;;;;;;;;;;;;;6.45;88.67;101100.31;5071940;28;20256;-73
2023/05/01 05:22:51;;;;;;;;;;;;;;;6.50;88.30;101114.84;5072031;28;19912;-73
2023/05/01 05:25:16;;;;;;;;;;;;;;;6.56;88.07;101110.84;5071941;28;20267;-73
2023/05/01 05:27:41;;;;;;;;;;;;;;;6.52;87.51;101123.47;5071992;28;19978;-70
2023/05/01 05:30:07;;;;;;;;;;;;;;;6.51;86.80;101119.16;5071819;28;19919;-71
2023/05/01 05:32:33;;;;;;;;;;;;;;;6.47;85.73;101123.03;5072006;28;20414;-72
2023/05/01 05:34:58;;;;;;;;;;;;;;;6.60;85.93;101125.47;5071714;28;19961;-71
2023/05/01 05:37:24;;;;;;;;;;;;;;;6.79;84.93;101122.13;5070799;28;19976;-73
2023/05/01 05:39:50;;;;;;;;;;;;;;;6.74;84.92;101130.47;5071787;28;19912;-72
2023/05/01 05:42:15;;;;;;;;;;;;;;;6.59;85.70;101133.56;5074802;28;19912;-72
2023/05/01 05:44:41;;;;;;;;;;;;;;;6.55;86.32;101134.78;5079805;28;19924;-72
2023/05/01 05:47:06;;;;;;;;;;;;;;;6.64;86.57;101131.34;5076523;28;20295;-72
2023/05/01 05:49:31;;;;;;;;;;;;;;;6.71;85.85;101128.09;5077175;28;19934;-73
2023/05/01 05:51:57;;;;;;;;;;;;;;;6.69;86.73;101142.41;5090015;28;19944;-68
2023/05/01 05:54:23;;;;;;;;;;;;;;;6.67;86.62;101123.19;5095550;28;19968;-70
2023/05/01 05:56:48;;;;;;;;;;;;;;;6.80;85.49;101132.59;5095675;28;19912;-70
2023/05/01 05:59:13;;;;;;;;;;;;;;;6.64;85.66;101132.19;5095232;28;19912;-71
2023/05/01 06:01:39;;;;;;;;;;;;;;;6.41;84.62;101128.84;5079741;28;19912;-73
2023/05/01 06:04:05;;;;;;;;;;;;;;;6.38;85.25;101130.91;5075089;28;20413;-71
2023/05/01 06:06:30;;;;;;;;;;;;;;;6.22;84.45;101104.84;5075422;28;19948;-74
2023/05/01 06:08:56;;;;;;;;;;;;;;;6.43;84.90;101134.84;5075289;28;19912;-71
2023/05/01 06:11:22;;;;;;;;;;;;;;;6.43;83.53;101141.94;5076547;28;19951;-73
2023/05/01 06:13:47;;;;;;;;;;;;;;;6.37;81.78;101145.94;5076189;28;19919;-72
2023/05/01 06:16:13;;;;;;;;;;;;;;;6.37;81.44;101145.09;5076489;28;19917;-73
2023/05/01 06:18:39;;;;;;;;;;;;;;;6.39;81.30;101143.16;5076229;28;19932;-73
2023/05/01 06:21:05;;;;;;;;;;;;;;;6.44;81.31;101149.75;5075920;28;19913;-72
2023/05/01 06:23:30;;;;;;;;;;;;;;;6.52;80.16;101142.00;5075989;28;19912;-73
2023/05/01 06:25:56;;;;;;;;;;;;;;;6.69;80.82;101145.06;5075921;28;19912;-72
2023/05/01 06:28:21;;;;;;;;;;;;;;;6.87;81.29;101148.81;5075197;28;19923;-74
2023/05/01 06:30:47;;;;;;;;;;;;;;;6.93;78.39;101152.72;5074913;28;20284;-73
2023/05/01 06:33:12;;;;;;;;;;;;;;;6.78;78.63;101166.31;5074826;28;20375;-71
2023/05/01 06:35:38;;;;;;;;;;;;;;;6.64;79.47;101161.31;5074141;28;20328;-69
2023/05/01 06:38:04;;;;;;;;;;;;;;;6.65;79.90;101154.19;5077591;28;20375;-74
2023/05/01 06:40:30;;;;;;;;;;;;;;;6.69;80.49;101155.66;5076784;28;19913;-72
2023/05/01 06:42:56;;;;;;;;;;;;;;;6.90;80.80;101159.13;5075146;28;20368;-71
2023/05/01 06:45:25;;;;;;;;;;;;;;;7.26;81.70;101160.47;5071693;28;19926;-73
2023/05/01 06:47:52;;;;;;;;;;;;;;;7.67;81.94;101159.53;5073517;28;20279;-72
2023/05/01 06:50:18;;;;;;;;;;;;;;;7.89;81.23;101174.41;5074321;28;20395;-70
2023/05/01 06:52:43;;;;;;;;;;;;;;;8.03;81.46;101159.91;5074140;28;19913;-71
2023/05/01 06:55:09;;;;;;;;;;;;;;;8.06;81.56;101164.94;5074270;28;19912;-71
2023/05/01 06:57:34;;;;;;;;;;;;;;;7.93;81.05;101167.84;5074306;28;19923;-72
2023/05/01 06:59:59;;;;;;;;;;;;;;;7.80;81.36;101166.41;5074140;28;19917;-70
2023/05/01 07:02:25;;;;;;;;;;;;;;;7.66;82.32;101171.13;5076320;28;19912;-72
2023/05/01 07:04:51;;;;;;;;;;;;;;;7.66;80.78;101168.47;5074190;28;19920;-71
2023/05/01 07:07:16;;;;;;;;;;;;;;;7.81;81.26;101168.13;5075439;28;20400;-71
2023/05/01 07:09:42;;;;;;;;;;;;;;;7.83;80.85;101174.97;5081397;28;19958;-70
2023/05/01 07:12:07;;;;;;;;;;;;;;;7.90;80.14;101183.22;5077487;28;20364;-70
2023/05/01 07:14:35;;;;;;;;;;;;;;;7.80;80.45;101179.66;5074976;28;19912;-71
2023/05/01 07:17:01;;;;;;;;;;;;;;;7.78;79.89;101183.28;5074200;28;20027;-68
2023/05/01 07:19:27;;;;;;;;;;;;;;;7.74;79.02;101179.22;5073557;28;20011;-70
2023/05/01 07:21:52;;;;;;;;;;;;;;;7.74;79.00;101175.75;5074360;28;19963;-68
2023/05/01 07:24:18;;;;;;;;;;;;;;;7.74;79.43;101181.88;5080343;28;19999;-72
2023/05/01 07:26:43;;;;;;;;;;;;;;;7.75;78.91;101175.59;5073078;28;19918;-69
2023/05/01 07:29:08;;;;;;;;;;;;;;;7.75;78.77;101177.41;5073342;28;20021;-70
2023/05/01 07:31:34;;;;;;;;;;;;;;;7.77;78.10;101173.66;5072167;28;19913;-73
2023/05/01 07:33:59;;;;;;;;;;;;;;;7.80;77.77;101184.97;5073252;28;19918;-72
2023/05/01 07:36:25;;;;;;;;;;;;;;;7.78;76.27;101183.28;5073382;28;19919;-72
2023/05/01 07:38:50;;;;;;;;;;;;;;;7.75;75.98;101178.25;5072990;28;19912;-73
2023/05/01 07:41:15;;;;;;;;;;;;;;;7.72;73.00;101183.84;5072924;28;20328;-72
2023/05/01 07:43:41;;;;;;;;;;;;;;;7.72;73.84;101183.00;5071497;28;19913;-74
2023/05/01 07:46:07;;;;;;;;;;;;;;;7.74;73.12;101176.59;5073622;28;19921;-77
2023/05/01 07:48:33;;;;;;;;;;;;;;;7.78;72.14;101170.03;5073081;28;19920;-74
2023/05/01 07:51:08;;;;;;;;;;;;;;;7.84;72.32;101186.41;5072330;28;21235;-70
2023/05/01 07:53:46;;;;;;;;;;;;;;;7.87;71.65;101175.53;5072184;28;19916;-75
2023/05/01 07:56:20;;;;;;;;;;;;;;;7.79;73.43;101184.13;5070953;28;19947;-76
2023/05/01 07:58:45;;;;;;;;;;;;;;;7.80;71.86;101185.81;5071529;28;19913;-72
2023/05/01 08:01:11;;;;;;;;;;;;;;;7.73;69.85;101184.66;5072556;28;19916;-74
2023/05/01 08:03:36;;;;;;;;;;;;;;;7.71;69.98;101187.47;5070278;28;19958;-71
2023/05/01 08:06:02;;;;;;;;;;;;;;;7.77;68.20;101184.25;5072445;28;19932;-71
2023/05/01 08:08:27;;;;;;;;;;;;;;;7.80;59.83;101187.63;5074157;28;19912;-70
2023/05/01 08:10:53;;;;;;;;;;;;;;;7.86;60.37;101187.09;5072317;28;19924;-68
2023/05/01 08:13:18;;;;;;;;;;;;;;;7.90;60.00;101183.22;5072256;28;20208;-69
2023/05/01 08:15:45;;;;;;;;;;;;;;;7.83;55.51;101182.06;5072403;28;19913;-66
2023/05/01 08:18:11;;;;;;;;;;;;;;;7.77;57.20;101181.63;5074510;28;19912;-66
2023/05/01 08:20:36;;;;;;;;;;;;;;;7.81;57.73;101184.88;5074086;28;20283;-67
2023/05/01 08:23:01;;;;;;;;;;;;;;;7.90;56.91;101181.41;5072670;28;20359;-73
2023/05/01 08:25:27;;;;;;;;;;;;;;;8.05;56.91;101180.03;5073128;28;20385;-69
2023/05/01 08:27:52;;;;;;;;;;;;;;;8.14;56.41;101185.50;5073841;28;19969;-70
2023/05/01 08:30:17;;;;;;;;;;;;;;;8.11;56.17;101183.97;5072798;28;20310;-70
2023/05/01 08:32:43;;;;;;;;;;;;;;;8.12;57.12;101190.94;5072891;28;19924;-70
2023/05/01 08:35:08;;;;;;;;;;;;;;;8.08;57.04;101192.16;5072531;28;19971;-69
2023/05/01 08:37:34;;;;;;;;;;;;;;;8.12;58.18;101188.31;5102253;28;20321;-73
2023/05/01 08:39:59;;;;;;;;;;;;;;;8.13;58.47;101192.63;5074805;28;19919;-72
2023/05/01 08:42:25;;;;;;;;;;;;;;;8.23;58.83;101185.50;5076193;28;20344;-70
2023/05/01 08:44:53;;;;;;;;;;;;;;;8.28;58.04;101191.25;5073763;28;19912;-71
2023/05/01 08:47:18;;;;;;;;;;;;;;;8.27;57.93;101194.03;5075527;28;19917;-71
2023/05/01 08:49:44;;;;;;;;;;;;;;;8.35;59.49;101187.09;5073235;28;19912;-69
2023/05/01 08:52:10;;;;;;;;;;;;;;;8.47;58.79;101186.97;5074079;28;19913;-71
2023/05/01 08:54:38;;;;;;;;;;;;;;;8.53;59.22;101189.06;5075097;28;19921;-72
2023/05/01 08:57:05;;;;;;;;;;;;;;;8.53;59.94;101191.72;5072537;28;19920;-71
2023/05/01 08:59:32;;;;;;;;;;;;;;;8.52;59.57;101196.19;5073446;28;20275;-70
2023/05/01 09:02:03;;;;;;;;;;;;;;;8.53;60.99;101205.00;5073514;28;20360;-73
2023/05/01 09:04:32;;;;;;;;;;;;;;;8.45;61.24;101202.22;5072766;28;20372;-70
2023/05/01 09:07:02;;;;;;;;;;;;;;;8.50;61.39;101206.13;5071613;28;19958;-71
2023/05/01 09:09:28;;;;;;;;;;;;;;;8.58;62.89;101205.41;5072703;28;20007;-70
2023/05/01 09:11:55;;;;;;;;;;;;;;;8.56;64.19;101204.72;5071316;28;20395;-69
2023/05/01 09:14:20;;;;;;;;;;;;;;;8.70;62.98;101201.66;5072650;28;19919;-70
2023/05/01 09:16:46;;;;;;;;;;;;;;;8.84;62.03;101209.19;5074872;28;19912;-69
2023/05/01 09:19:11;;;;;;;;;;;;;;;8.91;63.63;101199.69;5081883;28;20439;-71
2023/05/01 09:21:37;;;;;;;;;;;;;;;8.96;62.27;101208.09;5089142;28;19916;-71
2023/05/01 09:24:02;;;;;;;;;;;;;;;8.95;63.29;101213.53;5085929;28;19960;-69
2023/05/01 09:26:27;;;;;;;;;;;;;;;8.95;62.93;101211.69;5078312;28;20341;-67
2023/05/01 09:28:56;;;;;;;;;;;;;;;9.02;64.31;101214.66;5077457;28;19923;-69
2023/05/01 09:31:23;;;;;;;;;;;;;;;8.93;63.54;101211.00;5076873;28;20287;-70
2023/05/01 09:33:56;;;;;;;;;;;;;;;8.82;63.25;101203.19;5074449;28;20372;-71
2023/05/01 09:36:25;;;;;;;;;;;;;;;8.86;63.20;101201.94;5075673;28;19913;-70
2023/05/01 09:38:51;;;;;;;;;;;;;;;8.95;61.46;101210.88;5075609;28;19964;-71
2023/05/01 09:41:16;;;;;;;;;;;;;;;8.99;62.58;101214.94;5074341;28;20462;-71
2023/05/01 09:43:47;;;;;;;;;;;;;;;8.96;61.75;101210.75;5076085;28;19916;-70
2023/05/01 09:46:13;;;;;;;;;;;;;;;8.73;61.57;101206.69;5075353;28;20275;-71
2023/05/01 09:48:38;;;;;;;;;;;;;;;8.75;63.06;101210.06;5075432;28;20006;-71
2023/05/01 09:51:22;;;;;;;;;;;;;;;8.73;61.08;101212.00;5075508;28;19916;-71
2023/05/01 09:53:48;;;;;;;;;;;;;;;8.64;59.58;101203.03;5077442;28;19919;-69
2023/05/01 09:56:13;;;;;;;;;;;;;;;8.62;58.56;101212.13;5080665;28;19912;-71
2023/05/01 09:58:39;;;;;;;;;;;;;;;8.61;59.13;101202.47;5077016;28;20368;-71
2023/05/01 10:01:05;;;;;;;;;;;;;;;8.70;60.03;101206.97;5075366;28;19976;-72
2023/05/01 10:03:31;;;;;;;;;;;;;;;8.75;59.81;101199.44;5075080;28;19912;-71
2023/05/01 10:05:59;;;;;;;;;;;;;;;8.79;58.76;101207.94;5075102;28;20319;-72
2023/05/01 10:08:25;;;;;;;;;;;;;;;8.85;56.39;101200.25;5075195;28;19935;-72
2023/05/01 10:11:04;;;;;;;;;;;;;;;8.89;55.37;101206.97;5075505;28;19912;-72
2023/05/01 10:13:29;;;;;;;;;;;;;;;8.94;55.26;101204.72;5075090;28;19935;-71
2023/05/01 10:15:55;;;;;;;;;;;;;;;8.91;53.05;101212.13;5074841;28;20335;-72
2023/05/01 10:18:22;;;;;;;;;;;;;;;8.93;53.55;101203.03;5074541;28;20399;-70
2023/05/01 10:20:47;;;;;;;;;;;;;;;8.89;53.35;101212.28;5075027;28;19966;-70
2023/05/01 10:23:14;;;;;;;;;;;;;;;8.82;53.21;101202.34;5074654;28;19920;-70
2023/05/01 10:25:41;;;;;;;;;;;;;;;8.80;53.56;101213.13;5074584;28;19982;-71
2023/05/01 10:28:07;;;;;;;;;;;;;;;8.74;53.79;101202.22;5074253;28;19912;-71
2023/05/01 10:30:34;;;;;;;;;;;;;;;8.74;54.78;101196.91;5074920;28;19951;-70
2023/05/01 10:33:00;;;;;;;;;;;;;;;8.82;55.87;101210.31;5075056;28;19982;-72
2023/05/01 10:35:28;;;;;;;;;;;;;;;8.84;55.88;101201.22;5074883;28;20391;-74
2023/05/01 10:38:00;;;;;;;;;;;;;;;8.78;57.00;101212.44;5074946;28;20275;-69
2023/05/01 10:40:37;;;;;;;;;;;;;;;8.76;56.25;101201.09;5074984;28;19912;-71
2023/05/01 10:43:25;;;;;;;;;;;;;;;8.86;57.34;101204.59;5074594;28;20010;-70
2023/05/01 10:45:51;;;;;;;;;;;;;;;8.87;55.31;101214.22;5074379;28;19916;-74
2023/05/01 10:48:35;;;;;;;;;;;;;;;8.84;53.67;101219.81;5075684;28;19916;-72
2023/05/01 10:51:08;;;;;;;;;;;;;;;8.77;53.78;101217.88;5074940;28;20008;-73
2023/05/01 10:53:33;;;;;;;;;;;;;;;8.69;51.60;101224.72;5075098;28;19913;-71
2023/05/01 10:55:58;;;;;;;;;;;;;;;8.68;51.38;101216.91;5074948;28;20410;-73
2023/05/01 10:58:33;;;;;;;;;;;;;;;8.74;51.55;101224.31;5074898;28;20013;-73
2023/05/01 11:01:17;;;;;;;;;;;;;;;8.81;50.56;101225.41;5074283;28;20421;-72
2023/05/01 11:03:43;;;;;;;;;;;;;;;8.75;48.08;101220.69;5075024;28;19920;-71
2023/05/01 11:06:08;;;;;;;;;;;;;;;8.73;48.46;101217.31;5074016;28;19928;-71
2023/05/01 11:08:35;;;;;;;;;;;;;;;8.80;48.82;101223.75;5072692;28;19912;-71
2023/05/01 11:11:18;;;;;;;;;;;;;;;8.88;48.49;101226.53;5074288;28;19912;-72
2023/05/01 11:14:00;;;;;;;;;;;;;;;8.89;48.08;101222.06;5077525;28;19919;-71
2023/05/01 11:16:38;;;;;;;;;;;;;;;8.95;47.58;101234.78;5074451;28;20345;-72
2023/05/01 11:19:07;;;;;;;;;;;;;;;8.88;46.19;101215.91;5073538;28;20390;-70
2023/05/01 11:21:33;;;;;;;;;;;;;;;8.86;47.55;101225.00;5075509;28;19916;-71
2023/05/01 11:23:59;;;;;;;;;;;;;;;8.83;48.18;101238.56;5073973;28;19916;-70
2023/05/01 11:26:24;;;;;;;;;;;;;;;8.73;48.86;101227.94;5073938;28;19912;-72
2023/05/01 11:28:52;;;;;;;;;;;;;;;8.76;49.80;101248.91;5073688;28;19994;-71
2023/05/01 11:31:18;;;;;;;;;;;;;;;8.72;48.73;101242.19;5074220;28;19919;-71
2023/05/01 11:33:44;;;;;;;;;;;;;;;8.69;49.92;101243.31;5073902;28;19999;-72
2023/05/01 11:36:09;;;;;;;;;;;;;;;8.70;50.91;101241.50;5073565;28;20317;-71
2023/05/01 11:38:34;;;;;;;;;;;;;;;8.75;51.69;101239.25;5073072;28;19912;-72
2023/05/01 11:41:00;;;;;;;;;;;;;;;8.79;52.80;101232.69;5073935;28;19912;-71
2023/05/01 11:43:26;;;;;;;;;;;;;;;8.78;52.96;101238.16;5073887;28;19912;-70
2023/05/01 11:46:01;;;;;;;;;;;;;;;8.73;51.56;101248.34;5074222;28;19923;-70
2023/05/01 11:48:27;;;;;;;;;;;;;;;8.75;52.46;101247.22;5079592;28;19917;-70
2023/05/01 11:50:52;;;;;;;;;;;;;;;8.73;52.04;101243.03;5074854;28;19921;-71
2023/05/01 11:53:18;;;;;;;;;;;;;;;8.72;53.43;101247.50;5074230;28;19912;-71
2023/05/01 11:55:44;;;;;;;;;;;;;;;8.58;53.58;101237.28;5073469;28;20422;-70
2023/05/01 11:58:10;;;;;;;;;;;;;;;8.56;54.60;101252.50;5072752;28;19913;-70
2023/05/01 12:00:37;;;;;;;;;;;;;;;8.54;55.56;101243.84;5072847;28;19919;-71
2023/05/01 12:03:02;;;;;;;;;;;;;;;8.51;55.74;101249.44;5072153;28;19932;-71
2023/05/01 12:05:28;;;;;;;;;;;;;;;8.49;56.02;101238.13;5072428;28;20366;-70
2023/05/01 12:08:14;;;;;;;;;;;;;;;8.58;56.67;101231.97;5072452;28;19925;-70
2023/05/01 12:10:40;;;;;;;;;;;;;;;8.69;55.86;101240.66;5072450;28;20272;-72
2023/05/01 12:13:07;;;;;;;;;;;;;;;8.75;54.71;101247.22;5072620;28;19928;-70
2023/05/01 12:15:34;;;;;;;;;;;;;;;8.76;55.56;101232.97;5072711;28;19923;-74
2023/05/01 12:17:59;;;;;;;;;;;;;;;8.76;54.52;101248.91;5072434;28;19912;-73
2023/05/01 12:20:36;;;;;;;;;;;;;;;8.74;53.81;101234.94;5072579;28;19919;-73
2023/05/01 12:23:02;;;;;;;;;;;;;;;8.68;54.23;101230.19;5072571;28;20275;-72
2023/05/01 12:25:30;;;;;;;;;;;;;;;8.67;54.63;101241.75;5072707;28;19917;-71
2023/05/01 12:27:56;;;;;;;;;;;;;;;8.67;54.70;101233.78;5072506;28;19919;-72
2023/05/01 12:30:25;;;;;;;;;;;;;;;8.73;53.66;101233.25;5072505;28;19912;-69
2023/05/01 12:32:51;;;;;;;;;;;;;;;8.80;53.53;101234.38;5072665;28;19913;-70
2023/05/01 12:35:16;;;;;;;;;;;;;;;8.75;52.15;101233.94;5072338;28;19919;-72
2023/05/01 12:37:42;;;;;;;;;;;;;;;8.80;52.90;101237.03;5072128;28;20287;-69
2023/05/01 12:40:17;;;;;;;;;;;;;;;8.77;51.74;101237.31;5072370;28;20003;-71
2023/05/01 12:42:43;;;;;;;;;;;;;;;8.78;51.65;101236.31;5072525;28;19916;-71